Check out our new PWSWeather beta!
PWSweather.com
Personal Weather Stations
Station Observations
KOHAVON11
Long Road Station, Avon, OH 44011

Long Road StationAvon, OH 44011

Lat: 41.437, Lon: -82.0477

Elevation: 686

Station Type: Davis Vantage Pro2

http://www.avon-weather.com

High Low Average
Temperature 40.3°F4.6°C 32.3°F0.2°C 36.0°F2.2°C
Dew Point 33.8°F1.0°C 25.5°F-3.6°C 28.0°F-2.2°C
Winds 15.0 mph 24.1 kmh Calm Calm 5.0 mph SW8.0 kmh SW
Wind Gusts 33.0 mph53.1 kmh -- 12.0 mph19.3 kmh
Humidity 87% 62% 73%
Pressure 30.29 in1025.7 mb 29.92 in1013.2 mb -
Precipitation 0.02 in0.5 mm - -
Hour Temp Dew Point Humidity Winds Wind Gusts Pressure Precip Precip Rate Daily Precip Total
12:04 AM 37.2°F2.9°C 33.7°F0.9°C 87% 12.0 mph WSW19.3 kmh WSW 30.0 mph48.3 kmh 29.92 in1013.2 mb 0.00 in0.0 mm 0.00 in0.0 mm 0.02 in0.5 mm
12:09 AM 37.4°F3.0°C 33.6°F0.9°C 86% 8.0 mph WSW12.9 kmh WSW 30.0 mph48.3 kmh 29.93 in1013.5 mb 0.00 in0.0 mm 0.00 in0.0 mm 0.02 in0.5 mm
12:14 AM 37.6°F3.1°C 33.8°F1.0°C 86% 9.0 mph WSW14.5 kmh WSW 30.0 mph48.3 kmh 29.93 in1013.5 mb 0.00 in0.0 mm 0.00 in0.0 mm 0.02 in0.5 mm
12:19 AM 37.7°F3.2°C 33.6°F0.9°C 85% 10.0 mph WSW16.1 kmh WSW 30.0 mph48.3 kmh 29.94 in1013.9 mb 0.00 in0.0 mm 0.00 in0.0 mm 0.02 in0.5 mm
12:24 AM 37.8°F3.2°C 33.7°F0.9°C 85% 14.0 mph WSW22.5 kmh WSW 19.0 mph30.6 kmh 29.94 in1013.9 mb 0.00 in0.0 mm 0.00 in0.0 mm 0.02 in0.5 mm
12:29 AM 37.8°F3.2°C 33.7°F0.9°C 85% 15.0 mph WNW24.1 kmh WNW 25.0 mph40.2 kmh 29.94 in1013.9 mb 0.00 in0.0 mm 0.00 in0.0 mm 0.02 in0.5 mm
12:34 AM 37.8°F3.2°C 33.4°F0.8°C 84% 13.0 mph SSW20.9 kmh SSW 29.0 mph46.7 kmh 29.95 in1014.2 mb 0.00 in0.0 mm 0.00 in0.0 mm 0.02 in0.5 mm
12:39 AM 38.0°F3.3°C 33.3°F0.7°C 83% 10.0 mph W16.1 kmh W 29.0 mph46.7 kmh 29.95 in1014.2 mb 0.00 in0.0 mm 0.00 in0.0 mm 0.02 in0.5 mm
12:44 AM 38.1°F3.4°C 33.1°F0.6°C 82% 14.0 mph WSW22.5 kmh WSW 33.0 mph53.1 kmh 29.95 in1014.2 mb 0.00 in0.0 mm 0.00 in0.0 mm 0.02 in0.5 mm
12:49 AM 38.2°F3.4°C 32.9°F0.5°C 81% 14.0 mph WNW22.5 kmh WNW 33.0 mph53.1 kmh 29.96 in1014.6 mb 0.00 in0.0 mm 0.00 in0.0 mm 0.02 in0.5 mm
12:54 AM 38.3°F3.5°C 32.3°F0.2°C 79% 11.0 mph W17.7 kmh W 33.0 mph53.1 kmh 29.96 in1014.6 mb 0.00 in0.0 mm 0.00 in0.0 mm 0.02 in0.5 mm
12:59 AM 38.5°F3.6°C 32.5°F0.3°C 79% 10.0 mph WSW16.1 kmh WSW 33.0 mph53.1 kmh 29.96 in1014.6 mb 0.00 in0.0 mm 0.00 in0.0 mm 0.02 in0.5 mm
01:04 AM 38.4°F3.6°C 32.4°F0.2°C 79% 6.0 mph W9.7 kmh W 21.0 mph33.8 kmh 29.96 in1014.6 mb 0.00 in0.0 mm 0.00 in0.0 mm 0.02 in0.5 mm
01:09 AM 38.4°F3.6°C 32.1°F0.1°C 78% 10.0 mph WSW16.1 kmh WSW 21.0 mph33.8 kmh 29.96 in1014.6 mb 0.00 in0.0 mm 0.00 in0.0 mm 0.02 in0.5 mm
01:14 AM 38.4°F3.6°C 32.4°F0.2°C 79% 6.0 mph WSW9.7 kmh WSW 16.0 mph25.7 kmh 29.97 in1014.9 mb 0.00 in0.0 mm 0.00 in0.0 mm 0.02 in0.5 mm
01:19 AM 38.4°F3.6°C 32.1°F0.1°C 78% 11.0 mph WSW17.7 kmh WSW 31.0 mph49.9 kmh 29.97 in1014.9 mb 0.00 in0.0 mm 0.00 in0.0 mm 0.02 in0.5 mm
01:24 AM 38.6°F3.7°C 32.0°F0.0°C 77% 12.0 mph WSW19.3 kmh WSW 31.0 mph49.9 kmh 29.97 in1014.9 mb 0.00 in0.0 mm 0.00 in0.0 mm 0.02 in0.5 mm
01:29 AM 38.7°F3.7°C 32.0°F0.0°C 77% 9.0 mph WSW14.5 kmh WSW 31.0 mph49.9 kmh 29.97 in1014.9 mb 0.00 in0.0 mm 0.00 in0.0 mm 0.02 in0.5 mm
01:34 AM 38.6°F3.7°C 32.3°F0.2°C 78% 6.0 mph WSW9.7 kmh WSW 31.0 mph49.9 kmh 29.98 in1015.2 mb 0.00 in0.0 mm 0.00 in0.0 mm 0.02 in0.5 mm
01:39 AM 38.4°F3.6°C 32.1°F0.1°C 78% 10.0 mph W16.1 kmh W 23.0 mph37.0 kmh 29.98 in1015.2 mb 0.00 in0.0 mm 0.00 in0.0 mm 0.02 in0.5 mm
01:44 AM 38.3°F3.5°C 32.3°F0.2°C 79% 6.0 mph WSW9.7 kmh WSW 23.0 mph37.0 kmh 29.99 in1015.6 mb 0.00 in0.0 mm 0.00 in0.0 mm 0.02 in0.5 mm
01:49 AM 38.3°F3.5°C 32.3°F0.2°C 79% 14.0 mph SW22.5 kmh SW 23.0 mph37.0 kmh 29.99 in1015.6 mb 0.00 in0.0 mm 0.00 in0.0 mm 0.02 in0.5 mm
01:54 AM 38.4°F3.6°C 32.4°F0.2°C 79% 5.0 mph W8.0 kmh W 23.0 mph37.0 kmh 29.99 in1015.6 mb 0.00 in0.0 mm 0.00 in0.0 mm 0.02 in0.5 mm
01:59 AM 38.5°F3.6°C 32.2°F0.1°C 78% 11.0 mph W17.7 kmh W 23.0 mph37.0 kmh 30.00 in1015.9 mb 0.00 in0.0 mm 0.00 in0.0 mm 0.02 in0.5 mm
02:04 AM 38.7°F3.7°C 32.4°F0.2°C 78% 11.0 mph W17.7 kmh W 23.0 mph37.0 kmh 30.00 in1015.9 mb 0.00 in0.0 mm 0.00 in0.0 mm 0.02 in0.5 mm
02:09 AM 38.7°F3.7°C 32.4°F0.2°C 78% 7.0 mph W11.3 kmh W 23.0 mph37.0 kmh 30.00 in1015.9 mb 0.00 in0.0 mm 0.00 in0.0 mm 0.02 in0.5 mm
02:14 AM 38.5°F3.6°C 32.5°F0.3°C 79% 4.0 mph SW6.4 kmh SW 23.0 mph37.0 kmh 30.01 in1016.3 mb 0.00 in0.0 mm 0.00 in0.0 mm 0.02 in0.5 mm
02:19 AM 38.1°F3.4°C 32.1°F0.1°C 79% 12.0 mph WSW19.3 kmh WSW 15.0 mph24.1 kmh 30.01 in1016.3 mb 0.00 in0.0 mm 0.00 in0.0 mm 0.02 in0.5 mm
02:24 AM 37.6°F3.1°C 32.3°F0.2°C 81% 6.0 mph WSW9.7 kmh WSW 15.0 mph24.1 kmh 30.01 in1016.3 mb 0.00 in0.0 mm 0.00 in0.0 mm 0.02 in0.5 mm
02:29 AM 37.3°F2.9°C 32.3°F0.2°C 82% 9.0 mph WSW14.5 kmh WSW 17.0 mph27.4 kmh 30.01 in1016.3 mb 0.00 in0.0 mm 0.00 in0.0 mm 0.02 in0.5 mm
02:34 AM 37.1°F2.8°C 32.1°F0.1°C 82% 5.0 mph SW8.0 kmh SW 20.0 mph32.2 kmh 30.02 in1016.6 mb 0.00 in0.0 mm 0.00 in0.0 mm 0.02 in0.5 mm
02:39 AM 36.9°F2.7°C 32.2°F0.1°C 83% 7.0 mph WSW11.3 kmh WSW 20.0 mph32.2 kmh 30.02 in1016.6 mb 0.00 in0.0 mm 0.00 in0.0 mm 0.02 in0.5 mm
02:44 AM 36.6°F2.6°C 31.9°F-0.1°C 83% 10.0 mph WSW16.1 kmh WSW 20.0 mph32.2 kmh 30.02 in1016.6 mb 0.00 in0.0 mm 0.00 in0.0 mm 0.02 in0.5 mm
02:49 AM 36.4°F2.4°C 31.7°F-0.2°C 83% 6.0 mph WSW9.7 kmh WSW 20.0 mph32.2 kmh 30.03 in1016.9 mb 0.00 in0.0 mm 0.00 in0.0 mm 0.02 in0.5 mm
02:54 AM 36.2°F2.3°C 31.8°F-0.1°C 84% 10.0 mph WSW16.1 kmh WSW 17.0 mph27.4 kmh 30.03 in1016.9 mb 0.00 in0.0 mm 0.00 in0.0 mm 0.02 in0.5 mm
02:59 AM 36.0°F2.2°C 31.6°F-0.2°C 84% 12.0 mph WSW19.3 kmh WSW 17.0 mph27.4 kmh 30.04 in1017.3 mb 0.00 in0.0 mm 0.00 in0.0 mm 0.02 in0.5 mm
03:04 AM 35.9°F2.2°C 31.8°F-0.1°C 85% 7.0 mph WSW11.3 kmh WSW 15.0 mph24.1 kmh 30.03 in1016.9 mb 0.00 in0.0 mm 0.00 in0.0 mm 0.02 in0.5 mm
03:09 AM 35.9°F2.2°C 31.8°F-0.1°C 85% 7.0 mph SW11.3 kmh SW 16.0 mph25.7 kmh 30.04 in1017.3 mb 0.00 in0.0 mm 0.00 in0.0 mm 0.02 in0.5 mm
03:14 AM 35.7°F2.1°C 31.6°F-0.2°C 85% 10.0 mph WSW16.1 kmh WSW 18.0 mph29.0 kmh 30.04 in1017.3 mb 0.00 in0.0 mm 0.00 in0.0 mm 0.02 in0.5 mm
03:19 AM 35.4°F1.9°C 31.3°F-0.4°C 85% 7.0 mph SW11.3 kmh SW 18.0 mph29.0 kmh 30.04 in1017.3 mb 0.00 in0.0 mm 0.00 in0.0 mm 0.02 in0.5 mm
03:24 AM 35.2°F1.8°C 31.4°F-0.3°C 86% 7.0 mph WSW11.3 kmh WSW 18.0 mph29.0 kmh 30.05 in1017.6 mb 0.00 in0.0 mm 0.00 in0.0 mm 0.02 in0.5 mm
03:29 AM 35.0°F1.7°C 31.3°F-0.4°C 86% 6.0 mph SW9.7 kmh SW 18.0 mph29.0 kmh 30.05 in1017.6 mb 0.00 in0.0 mm 0.00 in0.0 mm 0.02 in0.5 mm
03:34 AM 35.0°F1.7°C 31.3°F-0.4°C 86% 5.0 mph SW8.0 kmh SW 14.0 mph22.5 kmh 30.05 in1017.6 mb 0.00 in0.0 mm 0.00 in0.0 mm 0.02 in0.5 mm
03:39 AM 35.0°F1.7°C 31.3°F-0.4°C 86% 11.0 mph WSW17.7 kmh WSW 15.0 mph24.1 kmh 30.06 in1017.9 mb 0.00 in0.0 mm 0.00 in0.0 mm 0.02 in0.5 mm
03:44 AM 35.0°F1.7°C 31.3°F-0.4°C 86% 6.0 mph WSW9.7 kmh WSW 17.0 mph27.4 kmh 30.06 in1017.9 mb 0.00 in0.0 mm 0.00 in0.0 mm 0.02 in0.5 mm
03:49 AM 35.0°F1.7°C 31.3°F-0.4°C 86% 15.0 mph SW24.1 kmh SW 18.0 mph29.0 kmh 30.06 in1017.9 mb 0.00 in0.0 mm 0.00 in0.0 mm 0.02 in0.5 mm
03:54 AM 35.0°F1.7°C 31.3°F-0.4°C 86% 7.0 mph WSW11.3 kmh WSW 18.0 mph29.0 kmh 30.07 in1018.3 mb 0.00 in0.0 mm 0.00 in0.0 mm 0.02 in0.5 mm
03:59 AM 35.0°F1.7°C 31.3°F-0.4°C 86% 8.0 mph WSW12.9 kmh WSW 18.0 mph29.0 kmh 30.07 in1018.3 mb 0.00 in0.0 mm 0.00 in0.0 mm 0.02 in0.5 mm
04:04 AM 35.1°F1.7°C 31.3°F-0.4°C 86% 9.0 mph WNW14.5 kmh WNW 18.0 mph29.0 kmh 30.07 in1018.3 mb 0.00 in0.0 mm 0.00 in0.0 mm 0.02 in0.5 mm
04:09 AM 35.1°F1.7°C 31.1°F-0.5°C 85% 10.0 mph SW16.1 kmh SW 16.0 mph25.7 kmh 30.08 in1018.6 mb 0.00 in0.0 mm 0.00 in0.0 mm 0.02 in0.5 mm
04:14 AM 35.2°F1.8°C 31.2°F-0.4°C 85% 11.0 mph WSW17.7 kmh WSW 16.0 mph25.7 kmh 30.08 in1018.6 mb 0.00 in0.0 mm 0.00 in0.0 mm 0.02 in0.5 mm
04:19 AM 35.3°F1.8°C 31.0°F-0.6°C 84% 6.0 mph WSW9.7 kmh WSW 19.0 mph30.6 kmh 30.09 in1019.0 mb 0.00 in0.0 mm 0.00 in0.0 mm 0.02 in0.5 mm
04:24 AM 35.4°F1.9°C 30.7°F-0.7°C 83% 8.0 mph WSW12.9 kmh WSW 19.0 mph30.6 kmh 30.09 in1019.0 mb 0.00 in0.0 mm 0.00 in0.0 mm 0.02 in0.5 mm
04:29 AM 35.4°F1.9°C 30.7°F-0.7°C 83% 10.0 mph SSW16.1 kmh SSW 19.0 mph30.6 kmh 30.10 in1019.3 mb 0.00 in0.0 mm 0.00 in0.0 mm 0.02 in0.5 mm
04:34 AM 35.5°F1.9°C 30.5°F-0.8°C 82% 6.0 mph SW9.7 kmh SW 19.0 mph30.6 kmh 30.10 in1019.3 mb 0.00 in0.0 mm 0.00 in0.0 mm 0.02 in0.5 mm
04:39 AM 35.5°F1.9°C 30.2°F-1.0°C 81% 6.0 mph WSW9.7 kmh WSW 19.0 mph30.6 kmh 30.10 in1019.3 mb 0.00 in0.0 mm 0.00 in0.0 mm 0.02 in0.5 mm
04:44 AM 35.5°F1.9°C 30.2°F-1.0°C 81% 11.0 mph WSW17.7 kmh WSW 19.0 mph30.6 kmh 30.10 in1019.3 mb 0.00 in0.0 mm 0.00 in0.0 mm 0.02 in0.5 mm
04:49 AM 35.4°F1.9°C 29.8°F-1.2°C 80% 10.0 mph WSW16.1 kmh WSW 16.0 mph25.7 kmh 30.11 in1019.6 mb 0.00 in0.0 mm 0.00 in0.0 mm 0.02 in0.5 mm
04:54 AM 35.4°F1.9°C 29.8°F-1.2°C 80% 6.0 mph WSW9.7 kmh WSW 16.0 mph25.7 kmh 30.11 in1019.6 mb 0.00 in0.0 mm 0.00 in0.0 mm 0.02 in0.5 mm
04:59 AM 35.3°F1.8°C 29.4°F-1.4°C 79% 9.0 mph W14.5 kmh W 16.0 mph25.7 kmh 30.11 in1019.6 mb 0.00 in0.0 mm 0.00 in0.0 mm 0.02 in0.5 mm
05:04 AM 35.3°F1.8°C 29.1°F-1.6°C 78% 10.0 mph W16.1 kmh W 16.0 mph25.7 kmh 30.12 in1020.0 mb 0.00 in0.0 mm 0.00 in0.0 mm 0.02 in0.5 mm
05:09 AM 35.2°F1.8°C 28.7°F-1.8°C 77% 6.0 mph WSW9.7 kmh WSW 13.0 mph20.9 kmh 30.12 in1020.0 mb 0.00 in0.0 mm 0.00 in0.0 mm 0.02 in0.5 mm
05:14 AM 35.2°F1.8°C 28.0°F-2.2°C 75% 9.0 mph SW14.5 kmh SW 15.0 mph24.1 kmh 30.12 in1020.0 mb 0.00 in0.0 mm 0.00 in0.0 mm 0.02 in0.5 mm
05:19 AM 35.2°F1.8°C 27.7°F-2.4°C 74% 10.0 mph W16.1 kmh W 16.0 mph25.7 kmh 30.12 in1020.0 mb 0.00 in0.0 mm 0.00 in0.0 mm 0.02 in0.5 mm
05:24 AM 35.2°F1.8°C 27.3°F-2.6°C 73% 7.0 mph SW11.3 kmh SW 16.0 mph25.7 kmh 30.13 in1020.3 mb 0.00 in0.0 mm 0.00 in0.0 mm 0.02 in0.5 mm
05:29 AM 35.1°F1.7°C 26.5°F-3.1°C 71% 7.0 mph W11.3 kmh W 16.0 mph25.7 kmh 30.13 in1020.3 mb 0.00 in0.0 mm 0.00 in0.0 mm 0.02 in0.5 mm
05:34 AM 35.1°F1.7°C 26.2°F-3.2°C 70% 8.0 mph WSW12.9 kmh WSW 16.0 mph25.7 kmh 30.13 in1020.3 mb 0.00 in0.0 mm 0.00 in0.0 mm 0.02 in0.5 mm
05:39 AM 35.2°F1.8°C 26.3°F-3.2°C 70% 6.0 mph WSW9.7 kmh WSW 15.0 mph24.1 kmh 30.14 in1020.7 mb 0.00 in0.0 mm 0.00 in0.0 mm 0.02 in0.5 mm
05:44 AM 35.2°F1.8°C 25.6°F-3.6°C 68% 7.0 mph SW11.3 kmh SW 17.0 mph27.4 kmh 30.14 in1020.7 mb 0.00 in0.0 mm 0.00 in0.0 mm 0.02 in0.5 mm
05:49 AM 35.2°F1.8°C 25.6°F-3.6°C 68% 9.0 mph WSW14.5 kmh WSW 17.0 mph27.4 kmh 30.15 in1021.0 mb 0.00 in0.0 mm 0.00 in0.0 mm 0.02 in0.5 mm
05:54 AM 35.3°F1.8°C 25.7°F-3.5°C 68% 11.0 mph WNW17.7 kmh WNW 22.0 mph35.4 kmh 30.15 in1021.0 mb 0.00 in0.0 mm 0.00 in0.0 mm 0.02 in0.5 mm
05:59 AM 35.2°F1.8°C 25.6°F-3.6°C 68% 12.0 mph SW19.3 kmh SW 22.0 mph35.4 kmh 30.15 in1021.0 mb 0.00 in0.0 mm 0.00 in0.0 mm 0.02 in0.5 mm
06:04 AM 35.1°F1.7°C 25.5°F-3.6°C 68% 7.0 mph SW11.3 kmh SW 23.0 mph37.0 kmh 30.15 in1021.0 mb 0.00 in0.0 mm 0.00 in0.0 mm 0.02 in0.5 mm
06:09 AM 35.1°F1.7°C 25.5°F-3.6°C 68% 10.0 mph WSW16.1 kmh WSW 23.0 mph37.0 kmh 30.15 in1021.0 mb 0.00 in0.0 mm 0.00 in0.0 mm 0.02 in0.5 mm
06:14 AM 35.1°F1.7°C 25.5°F-3.6°C 68% 9.0 mph SW14.5 kmh SW 23.0 mph37.0 kmh 30.15 in1021.0 mb 0.00 in0.0 mm 0.00 in0.0 mm 0.02 in0.5 mm
06:19 AM 35.1°F1.7°C 25.5°F-3.6°C 68% 8.0 mph SW12.9 kmh SW 23.0 mph37.0 kmh 30.16 in1021.3 mb 0.00 in0.0 mm 0.00 in0.0 mm 0.02 in0.5 mm
06:24 AM 35.1°F1.7°C 26.2°F-3.2°C 70% 6.0 mph WSW9.7 kmh WSW 13.0 mph20.9 kmh 30.16 in1021.3 mb 0.00 in0.0 mm 0.00 in0.0 mm 0.02 in0.5 mm
06:29 AM 35.0°F1.7°C 26.4°F-3.1°C 71% 7.0 mph WSW11.3 kmh WSW 13.0 mph20.9 kmh 30.16 in1021.3 mb 0.00 in0.0 mm 0.00 in0.0 mm 0.02 in0.5 mm
06:34 AM 34.9°F1.6°C 26.7°F-2.9°C 72% 11.0 mph WSW17.7 kmh WSW 16.0 mph25.7 kmh 30.17 in1021.7 mb 0.00 in0.0 mm 0.00 in0.0 mm 0.02 in0.5 mm
06:39 AM 34.7°F1.5°C 26.5°F-3.1°C 72% 5.0 mph WSW8.0 kmh WSW 16.0 mph25.7 kmh 30.17 in1021.7 mb 0.00 in0.0 mm 0.00 in0.0 mm 0.02 in0.5 mm
06:44 AM 34.6°F1.4°C 26.8°F-2.9°C 73% 7.0 mph WSW11.3 kmh WSW 16.0 mph25.7 kmh 30.17 in1021.7 mb 0.00 in0.0 mm 0.00 in0.0 mm 0.02 in0.5 mm
06:49 AM 34.6°F1.4°C 26.8°F-2.9°C 73% 5.0 mph SW8.0 kmh SW 16.0 mph25.7 kmh 30.18 in1022.0 mb 0.00 in0.0 mm 0.00 in0.0 mm 0.02 in0.5 mm
06:54 AM 34.5°F1.4°C 26.7°F-2.9°C 73% 5.0 mph WSW8.0 kmh WSW 15.0 mph24.1 kmh 30.18 in1022.0 mb 0.00 in0.0 mm 0.00 in0.0 mm 0.02 in0.5 mm
06:59 AM 34.4°F1.3°C 26.9°F-2.8°C 74% 4.0 mph WSW6.4 kmh WSW 15.0 mph24.1 kmh 30.19 in1022.4 mb 0.00 in0.0 mm 0.00 in0.0 mm 0.02 in0.5 mm
07:04 AM 34.3°F1.3°C 26.8°F-2.9°C 74% 5.0 mph WSW8.0 kmh WSW 14.0 mph22.5 kmh 30.19 in1022.4 mb 0.00 in0.0 mm 0.00 in0.0 mm 0.02 in0.5 mm
07:09 AM 34.2°F1.2°C 26.7°F-2.9°C 74% 11.0 mph SW17.7 kmh SW 14.0 mph22.5 kmh 30.19 in1022.4 mb 0.00 in0.0 mm 0.00 in0.0 mm 0.02 in0.5 mm
07:14 AM 34.2°F1.2°C 26.7°F-2.9°C 74% 7.0 mph WSW11.3 kmh WSW 14.0 mph22.5 kmh 30.20 in1022.7 mb 0.00 in0.0 mm 0.00 in0.0 mm 0.02 in0.5 mm
07:19 AM 34.1°F1.2°C 26.6°F-3.0°C 74% 4.0 mph SW6.4 kmh SW 17.0 mph27.4 kmh 30.20 in1022.7 mb 0.00 in0.0 mm 0.00 in0.0 mm 0.02 in0.5 mm
07:24 AM 34.1°F1.2°C 26.6°F-3.0°C 74% 3.0 mph SW4.8 kmh SW 17.0 mph27.4 kmh 30.20 in1022.7 mb 0.00 in0.0 mm 0.00 in0.0 mm 0.02 in0.5 mm
07:29 AM 34.0°F1.1°C 26.5°F-3.1°C 74% 7.0 mph WSW11.3 kmh WSW 17.0 mph27.4 kmh 30.20 in1022.7 mb 0.00 in0.0 mm 0.00 in0.0 mm 0.02 in0.5 mm
07:34 AM 33.9°F1.1°C 26.8°F-2.9°C 75% 4.0 mph SW6.4 kmh SW 17.0 mph27.4 kmh 30.20 in1022.7 mb 0.00 in0.0 mm 0.00 in0.0 mm 0.02 in0.5 mm
07:39 AM 33.9°F1.1°C 26.8°F-2.9°C 75% 6.0 mph SW9.7 kmh SW 12.0 mph19.3 kmh 30.20 in1022.7 mb 0.00 in0.0 mm 0.00 in0.0 mm 0.02 in0.5 mm
07:44 AM 33.9°F1.1°C 26.8°F-2.9°C 75% 7.0 mph WSW11.3 kmh WSW 12.0 mph19.3 kmh 30.20 in1022.7 mb 0.00 in0.0 mm 0.00 in0.0 mm 0.02 in0.5 mm
07:49 AM 33.8°F1.0°C 26.7°F-2.9°C 75% 4.0 mph SW6.4 kmh SW 12.0 mph19.3 kmh 30.21 in1023.0 mb 0.00 in0.0 mm 0.00 in0.0 mm 0.02 in0.5 mm
07:54 AM 33.7°F0.9°C 26.6°F-3.0°C 75% 7.0 mph WSW11.3 kmh WSW 13.0 mph20.9 kmh 30.21 in1023.0 mb 0.00 in0.0 mm 0.00 in0.0 mm 0.02 in0.5 mm
07:59 AM 33.7°F0.9°C 26.6°F-3.0°C 75% 7.0 mph S11.3 kmh S 13.0 mph20.9 kmh 30.21 in1023.0 mb 0.00 in0.0 mm 0.00 in0.0 mm 0.02 in0.5 mm
08:04 AM 33.6°F0.9°C 26.5°F-3.1°C 75% 6.0 mph WSW9.7 kmh WSW 13.0 mph20.9 kmh 30.22 in1023.4 mb 0.00 in0.0 mm 0.00 in0.0 mm 0.02 in0.5 mm
08:09 AM 33.6°F0.9°C 26.5°F-3.1°C 75% 4.0 mph SW6.4 kmh SW 13.0 mph20.9 kmh 30.23 in1023.7 mb 0.00 in0.0 mm 0.00 in0.0 mm 0.02 in0.5 mm
08:14 AM 33.6°F0.9°C 26.5°F-3.1°C 75% 6.0 mph SW9.7 kmh SW 11.0 mph17.7 kmh 30.23 in1023.7 mb 0.00 in0.0 mm 0.00 in0.0 mm 0.02 in0.5 mm
08:19 AM 33.6°F0.9°C 26.5°F-3.1°C 75% 10.0 mph WSW16.1 kmh WSW 12.0 mph19.3 kmh 30.23 in1023.7 mb 0.00 in0.0 mm 0.00 in0.0 mm 0.02 in0.5 mm
08:24 AM 33.5°F0.8°C 26.4°F-3.1°C 75% 5.0 mph SW8.0 kmh SW 13.0 mph20.9 kmh 30.23 in1023.7 mb 0.00 in0.0 mm 0.00 in0.0 mm 0.02 in0.5 mm
08:29 AM 33.5°F0.8°C 26.7°F-2.9°C 76% 3.0 mph SW4.8 kmh SW 13.0 mph20.9 kmh 30.23 in1023.7 mb 0.00 in0.0 mm 0.00 in0.0 mm 0.02 in0.5 mm
08:34 AM 33.6°F0.9°C 26.8°F-2.9°C 76% 6.0 mph SW9.7 kmh SW 13.0 mph20.9 kmh 30.24 in1024.0 mb 0.00 in0.0 mm 0.00 in0.0 mm 0.02 in0.5 mm
08:39 AM 33.6°F0.9°C 26.8°F-2.9°C 76% 9.0 mph SW14.5 kmh SW 13.0 mph20.9 kmh 30.24 in1024.0 mb 0.00 in0.0 mm 0.00 in0.0 mm 0.02 in0.5 mm
08:44 AM 33.6°F0.9°C 26.5°F-3.1°C 75% 7.0 mph SW11.3 kmh SW 12.0 mph19.3 kmh 30.24 in1024.0 mb 0.00 in0.0 mm 0.00 in0.0 mm 0.02 in0.5 mm
08:49 AM 33.6°F0.9°C 26.5°F-3.1°C 75% 5.0 mph SW8.0 kmh SW 12.0 mph19.3 kmh 30.24 in1024.0 mb 0.00 in0.0 mm 0.00 in0.0 mm 0.02 in0.5 mm
08:54 AM 33.6°F0.9°C 26.5°F-3.1°C 75% 4.0 mph WSW6.4 kmh WSW 12.0 mph19.3 kmh 30.25 in1024.4 mb 0.00 in0.0 mm 0.00 in0.0 mm 0.02 in0.5 mm
08:59 AM 33.7°F0.9°C 26.6°F-3.0°C 75% 7.0 mph WSW11.3 kmh WSW 14.0 mph22.5 kmh 30.25 in1024.4 mb 0.00 in0.0 mm 0.00 in0.0 mm 0.02 in0.5 mm
09:04 AM 33.7°F0.9°C 26.6°F-3.0°C 75% 6.0 mph SW9.7 kmh SW 14.0 mph22.5 kmh 30.25 in1024.4 mb 0.00 in0.0 mm 0.00 in0.0 mm 0.02 in0.5 mm
09:09 AM 33.7°F0.9°C 26.2°F-3.2°C 74% 5.0 mph WSW8.0 kmh WSW 14.0 mph22.5 kmh 30.25 in1024.4 mb 0.00 in0.0 mm 0.00 in0.0 mm 0.02 in0.5 mm
09:14 AM 33.7°F0.9°C 26.2°F-3.2°C 74% 7.0 mph WSW11.3 kmh WSW 14.0 mph22.5 kmh 30.25 in1024.4 mb 0.00 in0.0 mm 0.00 in0.0 mm 0.02 in0.5 mm
09:19 AM 33.9°F1.1°C 26.8°F-2.9°C 75% 6.0 mph WSW9.7 kmh WSW 13.0 mph20.9 kmh 30.25 in1024.4 mb 0.00 in0.0 mm 0.00 in0.0 mm 0.02 in0.5 mm
09:24 AM 34.0°F1.1°C 26.9°F-2.8°C 75% 8.0 mph SW12.9 kmh SW 13.0 mph20.9 kmh 30.25 in1024.4 mb 0.00 in0.0 mm 0.00 in0.0 mm 0.02 in0.5 mm
09:29 AM 34.1°F1.2°C 26.6°F-3.0°C 74% 5.0 mph SW8.0 kmh SW 12.0 mph19.3 kmh 30.25 in1024.4 mb 0.00 in0.0 mm 0.00 in0.0 mm 0.02 in0.5 mm
09:34 AM 34.1°F1.2°C 26.6°F-3.0°C 74% 12.0 mph WSW19.3 kmh WSW 13.0 mph20.9 kmh 30.25 in1024.4 mb 0.00 in0.0 mm 0.00 in0.0 mm 0.02 in0.5 mm
09:39 AM 34.2°F1.2°C 26.4°F-3.1°C 73% 6.0 mph SW9.7 kmh SW 13.0 mph20.9 kmh 30.25 in1024.4 mb 0.00 in0.0 mm 0.00 in0.0 mm 0.02 in0.5 mm
09:44 AM 34.6°F1.4°C 26.8°F-2.9°C 73% 5.0 mph SW8.0 kmh SW 13.0 mph20.9 kmh 30.25 in1024.4 mb 0.00 in0.0 mm 0.00 in0.0 mm 0.02 in0.5 mm
09:49 AM 35.0°F1.7°C 26.8°F-2.9°C 72% 3.0 mph WSW4.8 kmh WSW 13.0 mph20.9 kmh 30.25 in1024.4 mb 0.00 in0.0 mm 0.00 in0.0 mm 0.02 in0.5 mm
09:54 AM 35.3°F1.8°C 27.1°F-2.7°C 72% 3.0 mph WSW4.8 kmh WSW 11.0 mph17.7 kmh 30.25 in1024.4 mb 0.00 in0.0 mm 0.00 in0.0 mm 0.02 in0.5 mm
09:59 AM 35.5°F1.9°C 27.3°F-2.6°C 72% 4.0 mph SW6.4 kmh SW 11.0 mph17.7 kmh 30.25 in1024.4 mb 0.00 in0.0 mm 0.00 in0.0 mm 0.02 in0.5 mm
10:04 AM 35.8°F2.1°C 27.2°F-2.7°C 71% 6.0 mph WSW9.7 kmh WSW 13.0 mph20.9 kmh 30.25 in1024.4 mb 0.00 in0.0 mm 0.00 in0.0 mm 0.02 in0.5 mm
10:09 AM 35.8°F2.1°C 27.2°F-2.7°C 71% 9.0 mph SW14.5 kmh SW 13.0 mph20.9 kmh 30.26 in1024.7 mb 0.00 in0.0 mm 0.00 in0.0 mm 0.02 in0.5 mm
10:14 AM 36.1°F2.3°C 27.9°F-2.3°C 72% 7.0 mph WSW11.3 kmh WSW 13.0 mph20.9 kmh 30.26 in1024.7 mb 0.00 in0.0 mm 0.00 in0.0 mm 0.02 in0.5 mm
10:19 AM 36.0°F2.2°C 27.4°F-2.6°C 71% 5.0 mph SW8.0 kmh SW 13.0 mph20.9 kmh 30.26 in1024.7 mb 0.00 in0.0 mm 0.00 in0.0 mm 0.02 in0.5 mm
10:24 AM 36.3°F2.4°C 27.7°F-2.4°C 71% 5.0 mph WSW8.0 kmh WSW 10.0 mph16.1 kmh 30.26 in1024.7 mb 0.00 in0.0 mm 0.00 in0.0 mm 0.02 in0.5 mm
10:29 AM 36.1°F2.3°C 26.8°F-2.9°C 69% 5.0 mph SW8.0 kmh SW 13.0 mph20.9 kmh 30.26 in1024.7 mb 0.00 in0.0 mm 0.00 in0.0 mm 0.02 in0.5 mm
10:34 AM 36.0°F2.2°C 26.3°F-3.2°C 68% 5.0 mph SW8.0 kmh SW 13.0 mph20.9 kmh 30.27 in1025.1 mb 0.00 in0.0 mm 0.00 in0.0 mm 0.02 in0.5 mm
10:39 AM 36.0°F2.2°C 26.3°F-3.2°C 68% 6.0 mph WSW9.7 kmh WSW 13.0 mph20.9 kmh 30.27 in1025.1 mb 0.00 in0.0 mm 0.00 in0.0 mm 0.02 in0.5 mm
10:44 AM 36.3°F2.4°C 27.0°F-2.8°C 69% 5.0 mph WSW8.0 kmh WSW 13.0 mph20.9 kmh 30.27 in1025.1 mb 0.00 in0.0 mm 0.00 in0.0 mm 0.02 in0.5 mm
10:49 AM 36.6°F2.6°C 27.3°F-2.6°C 69% 3.0 mph WSW4.8 kmh WSW 12.0 mph19.3 kmh 30.27 in1025.1 mb 0.00 in0.0 mm 0.00 in0.0 mm 0.02 in0.5 mm
10:54 AM 36.5°F2.5°C 27.2°F-2.7°C 69% 7.0 mph WSW11.3 kmh WSW 12.0 mph19.3 kmh 30.27 in1025.1 mb 0.00 in0.0 mm 0.00 in0.0 mm 0.02 in0.5 mm
10:59 AM 36.3°F2.4°C 26.3°F-3.2°C 67% 7.0 mph WSW11.3 kmh WSW 12.0 mph19.3 kmh 30.28 in1025.4 mb 0.00 in0.0 mm 0.00 in0.0 mm 0.02 in0.5 mm
11:04 AM 36.2°F2.3°C 26.2°F-3.2°C 67% 4.0 mph WSW6.4 kmh WSW 13.0 mph20.9 kmh 30.28 in1025.4 mb 0.00 in0.0 mm 0.00 in0.0 mm 0.02 in0.5 mm
11:09 AM 36.5°F2.5°C 26.4°F-3.1°C 67% 10.0 mph WSW16.1 kmh WSW 13.0 mph20.9 kmh 30.28 in1025.4 mb 0.00 in0.0 mm 0.00 in0.0 mm 0.02 in0.5 mm
11:14 AM 36.6°F2.6°C 26.5°F-3.1°C 67% 10.0 mph SW16.1 kmh SW 13.0 mph20.9 kmh 30.28 in1025.4 mb 0.00 in0.0 mm 0.00 in0.0 mm 0.02 in0.5 mm
11:19 AM 36.6°F2.6°C 26.5°F-3.1°C 67% 6.0 mph SW9.7 kmh SW 13.0 mph20.9 kmh 30.28 in1025.4 mb 0.00 in0.0 mm 0.00 in0.0 mm 0.02 in0.5 mm
11:24 AM 36.4°F2.4°C 26.0°F-3.3°C 66% 5.0 mph WSW8.0 kmh WSW 12.0 mph19.3 kmh 30.28 in1025.4 mb 0.00 in0.0 mm 0.00 in0.0 mm 0.02 in0.5 mm
11:29 AM 36.4°F2.4°C 26.0°F-3.3°C 66% 11.0 mph SW17.7 kmh SW 12.0 mph19.3 kmh 30.28 in1025.4 mb 0.00 in0.0 mm 0.00 in0.0 mm 0.02 in0.5 mm
11:34 AM 36.3°F2.4°C 25.9°F-3.4°C 66% 4.0 mph WSW6.4 kmh WSW 11.0 mph17.7 kmh 30.29 in1025.7 mb 0.00 in0.0 mm 0.00 in0.0 mm 0.02 in0.5 mm
11:39 AM 36.3°F2.4°C 25.9°F-3.4°C 66% 7.0 mph SW11.3 kmh SW 11.0 mph17.7 kmh 30.28 in1025.4 mb 0.00 in0.0 mm 0.00 in0.0 mm 0.02 in0.5 mm
11:44 AM 36.2°F2.3°C 25.8°F-3.4°C 66% 5.0 mph W8.0 kmh W 10.0 mph16.1 kmh 30.28 in1025.4 mb 0.00 in0.0 mm 0.00 in0.0 mm 0.02 in0.5 mm
11:49 AM 36.3°F2.4°C 25.5°F-3.6°C 65% 5.0 mph WSW8.0 kmh WSW 13.0 mph20.9 kmh 30.29 in1025.7 mb 0.00 in0.0 mm 0.00 in0.0 mm 0.02 in0.5 mm
11:54 AM 36.3°F2.4°C 25.9°F-3.4°C 66% 5.0 mph SW8.0 kmh SW 13.0 mph20.9 kmh 30.29 in1025.7 mb 0.00 in0.0 mm 0.00 in0.0 mm 0.02 in0.5 mm
11:59 AM 36.4°F2.4°C 26.0°F-3.3°C 66% 8.0 mph WSW12.9 kmh WSW 13.0 mph20.9 kmh 30.29 in1025.7 mb 0.00 in0.0 mm 0.00 in0.0 mm 0.02 in0.5 mm
12:04 PM 36.3°F2.4°C 25.9°F-3.4°C 66% 4.0 mph WSW6.4 kmh WSW 13.0 mph20.9 kmh 30.29 in1025.7 mb 0.00 in0.0 mm 0.00 in0.0 mm 0.02 in0.5 mm
12:09 PM 36.2°F2.3°C 25.8°F-3.4°C 66% 4.0 mph SW6.4 kmh SW 10.0 mph16.1 kmh 30.29 in1025.7 mb 0.00 in0.0 mm 0.00 in0.0 mm 0.02 in0.5 mm
12:14 PM 36.1°F2.3°C 26.1°F-3.3°C 67% 5.0 mph SW8.0 kmh SW 10.0 mph16.1 kmh 30.29 in1025.7 mb 0.00 in0.0 mm 0.00 in0.0 mm 0.02 in0.5 mm
12:19 PM 35.9°F2.2°C 25.9°F-3.4°C 67% 5.0 mph WSW8.0 kmh WSW 14.0 mph22.5 kmh 30.29 in1025.7 mb 0.00 in0.0 mm 0.00 in0.0 mm 0.02 in0.5 mm
12:24 PM 35.7°F2.1°C 25.7°F-3.5°C 67% 5.0 mph SSW8.0 kmh SSW 14.0 mph22.5 kmh 30.29 in1025.7 mb 0.00 in0.0 mm 0.00 in0.0 mm 0.02 in0.5 mm
12:29 PM 35.8°F2.1°C 25.8°F-3.4°C 67% 5.0 mph WSW8.0 kmh WSW 14.0 mph22.5 kmh 30.29 in1025.7 mb 0.00 in0.0 mm 0.00 in0.0 mm 0.02 in0.5 mm
12:34 PM 36.0°F2.2°C 26.3°F-3.2°C 68% 6.0 mph WSW9.7 kmh WSW 14.0 mph22.5 kmh 30.29 in1025.7 mb 0.00 in0.0 mm 0.00 in0.0 mm 0.02 in0.5 mm
12:39 PM 35.9°F2.2°C 25.9°F-3.4°C 67% 7.0 mph WSW11.3 kmh WSW 10.0 mph16.1 kmh 30.29 in1025.7 mb 0.00 in0.0 mm 0.00 in0.0 mm 0.02 in0.5 mm
12:44 PM 36.0°F2.2°C 26.0°F-3.3°C 67% 5.0 mph WSW8.0 kmh WSW 12.0 mph19.3 kmh 30.29 in1025.7 mb 0.00 in0.0 mm 0.00 in0.0 mm 0.02 in0.5 mm
12:49 PM 36.2°F2.3°C 26.5°F-3.1°C 68% 6.0 mph SW9.7 kmh SW 12.0 mph19.3 kmh 30.29 in1025.7 mb 0.00 in0.0 mm 0.00 in0.0 mm 0.02 in0.5 mm
12:54 PM 36.2°F2.3°C 26.2°F-3.2°C 67% 7.0 mph W11.3 kmh W 12.0 mph19.3 kmh 30.29 in1025.7 mb 0.00 in0.0 mm 0.00 in0.0 mm 0.02 in0.5 mm
12:59 PM 36.2°F2.3°C 26.2°F-3.2°C 67% 4.0 mph WSW6.4 kmh WSW 12.0 mph19.3 kmh 30.29 in1025.7 mb 0.00 in0.0 mm 0.00 in0.0 mm 0.02 in0.5 mm
01:04 PM 36.4°F2.4°C 26.3°F-3.2°C 67% 3.0 mph WSW4.8 kmh WSW 11.0 mph17.7 kmh 30.29 in1025.7 mb 0.00 in0.0 mm 0.00 in0.0 mm 0.02 in0.5 mm
01:09 PM 36.5°F2.5°C 26.8°F-2.9°C 68% 3.0 mph W4.8 kmh W 11.0 mph17.7 kmh 30.29 in1025.7 mb 0.00 in0.0 mm 0.00 in0.0 mm 0.02 in0.5 mm
01:14 PM 36.7°F2.6°C 27.0°F-2.8°C 68% 4.0 mph WSW6.4 kmh WSW 11.0 mph17.7 kmh 30.28 in1025.4 mb 0.00 in0.0 mm 0.00 in0.0 mm 0.02 in0.5 mm
01:19 PM 37.0°F2.8°C 26.9°F-2.8°C 67% 6.0 mph W9.7 kmh W 14.0 mph22.5 kmh 30.28 in1025.4 mb 0.00 in0.0 mm 0.00 in0.0 mm 0.02 in0.5 mm
01:24 PM 37.2°F2.9°C 27.1°F-2.7°C 67% 4.0 mph WSW6.4 kmh WSW 14.0 mph22.5 kmh 30.28 in1025.4 mb 0.00 in0.0 mm 0.00 in0.0 mm 0.02 in0.5 mm
01:29 PM 37.3°F2.9°C 27.2°F-2.7°C 67% 5.0 mph WSW8.0 kmh WSW 14.0 mph22.5 kmh 30.28 in1025.4 mb 0.00 in0.0 mm 0.00 in0.0 mm 0.02 in0.5 mm
01:34 PM 38.2°F3.4°C 28.1°F-2.2°C 67% 5.0 mph W8.0 kmh W 14.0 mph22.5 kmh 30.28 in1025.4 mb 0.00 in0.0 mm 0.00 in0.0 mm 0.02 in0.5 mm
01:39 PM 38.3°F3.5°C 27.4°F-2.6°C 65% 5.0 mph WSW8.0 kmh WSW 10.0 mph16.1 kmh 30.28 in1025.4 mb 0.00 in0.0 mm 0.00 in0.0 mm 0.02 in0.5 mm
01:44 PM 38.0°F3.3°C 27.1°F-2.7°C 65% 3.0 mph SW4.8 kmh SW 10.0 mph16.1 kmh 30.28 in1025.4 mb 0.00 in0.0 mm 0.00 in0.0 mm 0.02 in0.5 mm
01:49 PM 38.1°F3.4°C 27.2°F-2.7°C 65% 5.0 mph SW8.0 kmh SW 9.0 mph14.5 kmh 30.28 in1025.4 mb 0.00 in0.0 mm 0.00 in0.0 mm 0.02 in0.5 mm
01:54 PM 37.9°F3.3°C 27.0°F-2.8°C 65% 4.0 mph WSW6.4 kmh WSW 10.0 mph16.1 kmh 30.28 in1025.4 mb 0.00 in0.0 mm 0.00 in0.0 mm 0.02 in0.5 mm
01:59 PM 38.1°F3.4°C 27.6°F-2.4°C 66% 4.0 mph SW6.4 kmh SW 10.0 mph16.1 kmh 30.28 in1025.4 mb 0.00 in0.0 mm 0.00 in0.0 mm 0.02 in0.5 mm
02:04 PM 38.2°F3.4°C 27.7°F-2.4°C 66% 4.0 mph WSW6.4 kmh WSW 10.0 mph16.1 kmh 30.28 in1025.4 mb 0.00 in0.0 mm 0.00 in0.0 mm 0.02 in0.5 mm
02:09 PM 39.0°F3.9°C 28.4°F-2.0°C 66% 4.0 mph SW6.4 kmh SW 10.0 mph16.1 kmh 30.28 in1025.4 mb 0.00 in0.0 mm 0.00 in0.0 mm 0.02 in0.5 mm
02:14 PM 38.7°F3.7°C 27.8°F-2.3°C 65% 9.0 mph S14.5 kmh S 10.0 mph16.1 kmh 30.28 in1025.4 mb 0.00 in0.0 mm 0.00 in0.0 mm 0.02 in0.5 mm
02:19 PM 39.6°F4.2°C 29.0°F-1.7°C 66% 5.0 mph SW8.0 kmh SW 10.0 mph16.1 kmh 30.28 in1025.4 mb 0.00 in0.0 mm 0.00 in0.0 mm 0.02 in0.5 mm
02:24 PM 38.8°F3.8°C 27.5°F-2.5°C 64% 5.0 mph SW8.0 kmh SW 10.0 mph16.1 kmh 30.28 in1025.4 mb 0.00 in0.0 mm 0.00 in0.0 mm 0.02 in0.5 mm
02:29 PM 38.5°F3.6°C 27.6°F-2.4°C 65% 4.0 mph W6.4 kmh W 8.0 mph12.9 kmh 30.28 in1025.4 mb 0.00 in0.0 mm 0.00 in0.0 mm 0.02 in0.5 mm
02:34 PM 39.0°F3.9°C 28.1°F-2.2°C 65% 5.0 mph SW8.0 kmh SW 10.0 mph16.1 kmh 30.28 in1025.4 mb 0.00 in0.0 mm 0.00 in0.0 mm 0.02 in0.5 mm
02:39 PM 39.8°F4.3°C 28.8°F-1.8°C 65% 4.0 mph SW6.4 kmh SW 11.0 mph17.7 kmh 30.28 in1025.4 mb 0.00 in0.0 mm 0.00 in0.0 mm 0.02 in0.5 mm
02:44 PM 39.8°F4.3°C 28.4°F-2.0°C 64% 4.0 mph WSW6.4 kmh WSW 11.0 mph17.7 kmh 30.28 in1025.4 mb 0.00 in0.0 mm 0.00 in0.0 mm 0.02 in0.5 mm
02:49 PM 40.0°F4.4°C 28.6°F-1.9°C 64% 5.0 mph WSW8.0 kmh WSW 11.0 mph17.7 kmh 30.28 in1025.4 mb 0.00 in0.0 mm 0.00 in0.0 mm 0.02 in0.5 mm
02:54 PM 39.9°F4.4°C 28.5°F-1.9°C 64% 7.0 mph SW11.3 kmh SW 11.0 mph17.7 kmh 30.28 in1025.4 mb 0.00 in0.0 mm 0.00 in0.0 mm 0.02 in0.5 mm
02:59 PM 40.0°F4.4°C 28.2°F-2.1°C 63% 5.0 mph SW8.0 kmh SW 11.0 mph17.7 kmh 30.28 in1025.4 mb 0.00 in0.0 mm 0.00 in0.0 mm 0.02 in0.5 mm
03:04 PM 40.0°F4.4°C 28.2°F-2.1°C 63% 6.0 mph WSW9.7 kmh WSW 12.0 mph19.3 kmh 30.28 in1025.4 mb 0.00 in0.0 mm 0.00 in0.0 mm 0.02 in0.5 mm
03:09 PM 40.1°F4.5°C 28.3°F-2.1°C 63% 4.0 mph SW6.4 kmh SW 12.0 mph19.3 kmh 30.28 in1025.4 mb 0.00 in0.0 mm 0.00 in0.0 mm 0.02 in0.5 mm
03:14 PM 40.0°F4.4°C 28.2°F-2.1°C 63% 4.0 mph SW6.4 kmh SW 12.0 mph19.3 kmh 30.28 in1025.4 mb 0.00 in0.0 mm 0.00 in0.0 mm 0.02 in0.5 mm
03:19 PM 40.0°F4.4°C 28.2°F-2.1°C 63% 6.0 mph WSW9.7 kmh WSW 12.0 mph19.3 kmh 30.28 in1025.4 mb 0.00 in0.0 mm 0.00 in0.0 mm 0.02 in0.5 mm
03:24 PM 40.0°F4.4°C 28.2°F-2.1°C 63% 6.0 mph WSW9.7 kmh WSW 10.0 mph16.1 kmh 30.27 in1025.1 mb 0.00 in0.0 mm 0.00 in0.0 mm 0.02 in0.5 mm
03:29 PM 40.0°F4.4°C 28.6°F-1.9°C 64% 3.0 mph WSW4.8 kmh WSW 10.0 mph16.1 kmh 30.28 in1025.4 mb 0.00 in0.0 mm 0.00 in0.0 mm 0.02 in0.5 mm
03:34 PM 40.1°F4.5°C 28.3°F-2.1°C 63% 4.0 mph WSW6.4 kmh WSW 10.0 mph16.1 kmh 30.28 in1025.4 mb 0.00 in0.0 mm 0.00 in0.0 mm 0.02 in0.5 mm
03:39 PM 40.1°F4.5°C 28.3°F-2.1°C 63% 5.0 mph SW8.0 kmh SW 10.0 mph16.1 kmh 30.28 in1025.4 mb 0.00 in0.0 mm 0.00 in0.0 mm 0.02 in0.5 mm
03:44 PM 40.0°F4.4°C 27.8°F-2.3°C 62% 4.0 mph WSW6.4 kmh WSW 11.0 mph17.7 kmh 30.28 in1025.4 mb 0.00 in0.0 mm 0.00 in0.0 mm 0.02 in0.5 mm
03:49 PM 40.1°F4.5°C 28.7°F-1.8°C 64% 5.0 mph WSW8.0 kmh WSW 11.0 mph17.7 kmh 30.28 in1025.4 mb 0.00 in0.0 mm 0.00 in0.0 mm 0.02 in0.5 mm
03:54 PM 40.2°F4.6°C 28.4°F-2.0°C 63% 5.0 mph WSW8.0 kmh WSW 11.0 mph17.7 kmh 30.28 in1025.4 mb 0.00 in0.0 mm 0.00 in0.0 mm 0.02 in0.5 mm
03:59 PM 40.3°F4.6°C 28.5°F-1.9°C 63% 7.0 mph WSW11.3 kmh WSW 11.0 mph17.7 kmh 30.28 in1025.4 mb 0.00 in0.0 mm 0.00 in0.0 mm 0.02 in0.5 mm
04:04 PM 40.3°F4.6°C 28.1°F-2.2°C 62% 3.0 mph WSW4.8 kmh WSW 10.0 mph16.1 kmh 30.28 in1025.4 mb 0.00 in0.0 mm 0.00 in0.0 mm 0.02 in0.5 mm
04:09 PM 40.2°F4.6°C 28.0°F-2.2°C 62% 7.0 mph SW11.3 kmh SW 10.0 mph16.1 kmh 30.28 in1025.4 mb 0.00 in0.0 mm 0.00 in0.0 mm 0.02 in0.5 mm
04:14 PM 40.1°F4.5°C 28.3°F-2.1°C 63% 2.0 mph SW3.2 kmh SW 8.0 mph12.9 kmh 30.28 in1025.4 mb 0.00 in0.0 mm 0.00 in0.0 mm 0.02 in0.5 mm
04:19 PM 40.2°F4.6°C 28.0°F-2.2°C 62% 4.0 mph SSW6.4 kmh SSW 11.0 mph17.7 kmh 30.28 in1025.4 mb 0.00 in0.0 mm 0.00 in0.0 mm 0.02 in0.5 mm
04:24 PM 40.2°F4.6°C 28.0°F-2.2°C 62% 5.0 mph WSW8.0 kmh WSW 11.0 mph17.7 kmh 30.27 in1025.1 mb 0.00 in0.0 mm 0.00 in0.0 mm 0.02 in0.5 mm
04:29 PM 40.2°F4.6°C 28.4°F-2.0°C 63% 6.0 mph SSW9.7 kmh SSW 11.0 mph17.7 kmh 30.28 in1025.4 mb 0.00 in0.0 mm 0.00 in0.0 mm 0.02 in0.5 mm
04:34 PM 40.1°F4.5°C 28.3°F-2.1°C 63% 5.0 mph SW8.0 kmh SW 11.0 mph17.7 kmh 30.27 in1025.1 mb 0.00 in0.0 mm 0.00 in0.0 mm 0.02 in0.5 mm
04:39 PM 40.1°F4.5°C 27.9°F-2.3°C 62% 2.0 mph WSW3.2 kmh WSW 7.0 mph11.3 kmh 30.27 in1025.1 mb 0.00 in0.0 mm 0.00 in0.0 mm 0.02 in0.5 mm
04:44 PM 40.1°F4.5°C 28.3°F-2.1°C 63% 3.0 mph SW4.8 kmh SW 8.0 mph12.9 kmh 30.27 in1025.1 mb 0.00 in0.0 mm 0.00 in0.0 mm 0.02 in0.5 mm
04:49 PM 40.1°F4.5°C 28.3°F-2.1°C 63% 4.0 mph SW6.4 kmh SW 8.0 mph12.9 kmh 30.27 in1025.1 mb 0.00 in0.0 mm 0.00 in0.0 mm 0.02 in0.5 mm
04:54 PM 40.1°F4.5°C 28.3°F-2.1°C 63% 2.0 mph WSW3.2 kmh WSW 8.0 mph12.9 kmh 30.27 in1025.1 mb 0.00 in0.0 mm 0.00 in0.0 mm 0.02 in0.5 mm
04:59 PM 40.0°F4.4°C 28.2°F-2.1°C 63% 6.0 mph SSW9.7 kmh SSW 8.0 mph12.9 kmh 30.26 in1024.7 mb 0.00 in0.0 mm 0.00 in0.0 mm 0.02 in0.5 mm
05:04 PM 39.9°F4.4°C 28.1°F-2.2°C 63% 2.0 mph WSW3.2 kmh WSW 10.0 mph16.1 kmh 30.26 in1024.7 mb 0.00 in0.0 mm 0.00 in0.0 mm 0.02 in0.5 mm
05:09 PM 39.8°F4.3°C 28.0°F-2.2°C 63% 2.0 mph SW3.2 kmh SW 10.0 mph16.1 kmh 30.26 in1024.7 mb 0.00 in0.0 mm 0.00 in0.0 mm 0.02 in0.5 mm
05:14 PM 39.7°F4.3°C 27.9°F-2.3°C 63% 3.0 mph SW4.8 kmh SW 10.0 mph16.1 kmh 30.26 in1024.7 mb 0.00 in0.0 mm 0.00 in0.0 mm 0.02 in0.5 mm
05:19 PM 39.5°F4.2°C 27.7°F-2.4°C 63% 6.0 mph WSW9.7 kmh WSW 10.0 mph16.1 kmh 30.26 in1024.7 mb 0.00 in0.0 mm 0.00 in0.0 mm 0.02 in0.5 mm
05:24 PM 39.3°F4.1°C 27.6°F-2.4°C 63% 3.0 mph SW4.8 kmh SW 6.0 mph9.7 kmh 30.26 in1024.7 mb 0.00 in0.0 mm 0.00 in0.0 mm 0.02 in0.5 mm
05:29 PM 39.1°F3.9°C 27.4°F-2.6°C 63% 2.0 mph SW3.2 kmh SW 6.0 mph9.7 kmh 30.26 in1024.7 mb 0.00 in0.0 mm 0.00 in0.0 mm 0.02 in0.5 mm
05:34 PM 39.0°F3.9°C 27.7°F-2.4°C 64% 3.0 mph SW4.8 kmh SW 6.0 mph9.7 kmh 30.26 in1024.7 mb 0.00 in0.0 mm 0.00 in0.0 mm 0.02 in0.5 mm
05:39 PM 38.9°F3.8°C 27.6°F-2.4°C 64% 3.0 mph SSW4.8 kmh SSW 6.0 mph9.7 kmh 30.26 in1024.7 mb 0.00 in0.0 mm 0.00 in0.0 mm 0.02 in0.5 mm
05:44 PM 38.7°F3.7°C 27.4°F-2.6°C 64% 2.0 mph SSW3.2 kmh SSW 6.0 mph9.7 kmh 30.27 in1025.1 mb 0.00 in0.0 mm 0.00 in0.0 mm 0.02 in0.5 mm
05:49 PM 38.5°F3.6°C 27.6°F-2.4°C 65% 4.0 mph SSW6.4 kmh SSW 6.0 mph9.7 kmh 30.27 in1025.1 mb 0.00 in0.0 mm 0.00 in0.0 mm 0.02 in0.5 mm
05:54 PM 38.4°F3.6°C 27.5°F-2.5°C 65% 1.0 mph SW1.6 kmh SW 6.0 mph9.7 kmh 30.27 in1025.1 mb 0.00 in0.0 mm 0.00 in0.0 mm 0.02 in0.5 mm
05:59 PM 38.3°F3.5°C 27.4°F-2.6°C 65% 1.0 mph SW1.6 kmh SW 6.0 mph9.7 kmh 30.28 in1025.4 mb 0.00 in0.0 mm 0.00 in0.0 mm 0.02 in0.5 mm
06:04 PM 38.1°F3.4°C 27.6°F-2.4°C 66% 1.0 mph SW1.6 kmh SW 4.0 mph6.4 kmh 30.28 in1025.4 mb 0.00 in0.0 mm 0.00 in0.0 mm 0.02 in0.5 mm
06:09 PM 38.0°F3.3°C 27.1°F-2.7°C 65% 1.0 mph SW1.6 kmh SW 4.0 mph6.4 kmh 30.28 in1025.4 mb 0.00 in0.0 mm 0.00 in0.0 mm 0.02 in0.5 mm
06:14 PM 37.7°F3.2°C 27.2°F-2.7°C 66% 1.0 mph SW1.6 kmh SW 3.0 mph4.8 kmh 30.28 in1025.4 mb 0.00 in0.0 mm 0.00 in0.0 mm 0.02 in0.5 mm
06:19 PM 37.6°F3.1°C 27.1°F-2.7°C 66% 2.0 mph SW3.2 kmh SW 3.0 mph4.8 kmh 30.27 in1025.1 mb 0.00 in0.0 mm 0.00 in0.0 mm 0.02 in0.5 mm
06:24 PM 37.3°F2.9°C 26.8°F-2.9°C 66% 2.0 mph SW3.2 kmh SW 4.0 mph6.4 kmh 30.27 in1025.1 mb 0.00 in0.0 mm 0.00 in0.0 mm 0.02 in0.5 mm
06:29 PM 37.1°F2.8°C 27.0°F-2.8°C 67% 2.0 mph SW3.2 kmh SW 4.0 mph6.4 kmh 30.27 in1025.1 mb 0.00 in0.0 mm 0.00 in0.0 mm 0.02 in0.5 mm
06:34 PM 36.9°F2.7°C 26.8°F-2.9°C 67% 2.0 mph SSW3.2 kmh SSW 5.0 mph8.0 kmh 30.27 in1025.1 mb 0.00 in0.0 mm 0.00 in0.0 mm 0.02 in0.5 mm
06:39 PM 36.7°F2.6°C 27.0°F-2.8°C 68% 3.0 mph SSW4.8 kmh SSW 5.0 mph8.0 kmh 30.27 in1025.1 mb 0.00 in0.0 mm 0.00 in0.0 mm 0.02 in0.5 mm
06:44 PM 36.4°F2.4°C 26.7°F-2.9°C 68% 2.0 mph SSW3.2 kmh SSW 5.0 mph8.0 kmh 30.27 in1025.1 mb 0.00 in0.0 mm 0.00 in0.0 mm 0.02 in0.5 mm
06:49 PM 36.2°F2.3°C 26.9°F-2.8°C 69% 2.0 mph S3.2 kmh S 5.0 mph8.0 kmh 30.27 in1025.1 mb 0.00 in0.0 mm 0.00 in0.0 mm 0.02 in0.5 mm
06:54 PM 36.0°F2.2°C 26.7°F-2.9°C 69% Calm Calm 4.0 mph6.4 kmh 30.27 in1025.1 mb 0.00 in0.0 mm 0.00 in0.0 mm 0.02 in0.5 mm
06:59 PM 35.8°F2.1°C 26.9°F-2.8°C 70% Calm Calm 4.0 mph6.4 kmh 30.27 in1025.1 mb 0.00 in0.0 mm 0.00 in0.0 mm 0.02 in0.5 mm
07:04 PM 35.5°F1.9°C 26.6°F-3.0°C 70% Calm Calm 3.0 mph4.8 kmh 30.27 in1025.1 mb 0.00 in0.0 mm 0.00 in0.0 mm 0.02 in0.5 mm
07:09 PM 35.3°F1.8°C 26.4°F-3.1°C 70% 2.0 mph S3.2 kmh S 2.0 mph3.2 kmh 30.27 in1025.1 mb 0.00 in0.0 mm 0.00 in0.0 mm 0.02 in0.5 mm
07:14 PM 35.1°F1.7°C 26.5°F-3.1°C 71% Calm Calm -- 30.26 in1024.7 mb 0.00 in0.0 mm 0.00 in0.0 mm 0.02 in0.5 mm
07:19 PM 34.9°F1.6°C 26.4°F-3.1°C 71% 1.0 mph S1.6 kmh S 2.0 mph3.2 kmh 30.26 in1024.7 mb 0.00 in0.0 mm 0.00 in0.0 mm 0.02 in0.5 mm
07:24 PM 34.6°F1.4°C 26.4°F-3.1°C 72% 1.0 mph S1.6 kmh S 3.0 mph4.8 kmh 30.26 in1024.7 mb 0.00 in0.0 mm 0.00 in0.0 mm 0.02 in0.5 mm
07:29 PM 34.4°F1.3°C 26.2°F-3.2°C 72% 1.0 mph S1.6 kmh S 3.0 mph4.8 kmh 30.26 in1024.7 mb 0.00 in0.0 mm 0.00 in0.0 mm 0.02 in0.5 mm
07:34 PM 34.2°F1.2°C 26.0°F-3.3°C 72% 2.0 mph S3.2 kmh S 4.0 mph6.4 kmh 30.25 in1024.4 mb 0.00 in0.0 mm 0.00 in0.0 mm 0.02 in0.5 mm
07:39 PM 34.0°F1.1°C 26.2°F-3.2°C 73% 4.0 mph S6.4 kmh S 4.0 mph6.4 kmh 30.25 in1024.4 mb 0.00 in0.0 mm 0.00 in0.0 mm 0.02 in0.5 mm
07:44 PM 33.9°F1.1°C 26.4°F-3.1°C 74% 3.0 mph S4.8 kmh S 4.0 mph6.4 kmh 30.26 in1024.7 mb 0.00 in0.0 mm 0.00 in0.0 mm 0.02 in0.5 mm
07:49 PM 33.9°F1.1°C 26.4°F-3.1°C 74% 1.0 mph S1.6 kmh S 4.0 mph6.4 kmh 30.26 in1024.7 mb 0.00 in0.0 mm 0.00 in0.0 mm 0.02 in0.5 mm
07:54 PM 33.9°F1.1°C 26.8°F-2.9°C 75% 3.0 mph S4.8 kmh S 5.0 mph8.0 kmh 30.26 in1024.7 mb 0.00 in0.0 mm 0.00 in0.0 mm 0.02 in0.5 mm
07:59 PM 33.9°F1.1°C 26.8°F-2.9°C 75% 1.0 mph S1.6 kmh S 5.0 mph8.0 kmh 30.25 in1024.4 mb 0.00 in0.0 mm 0.00 in0.0 mm 0.02 in0.5 mm
08:04 PM 33.9°F1.1°C 26.8°F-2.9°C 75% 3.0 mph S4.8 kmh S 5.0 mph8.0 kmh 30.25 in1024.4 mb 0.00 in0.0 mm 0.00 in0.0 mm 0.02 in0.5 mm
08:09 PM 33.9°F1.1°C 27.1°F-2.7°C 76% 4.0 mph S6.4 kmh S 5.0 mph8.0 kmh 30.25 in1024.4 mb 0.00 in0.0 mm 0.00 in0.0 mm 0.02 in0.5 mm
08:14 PM 34.0°F1.1°C 27.2°F-2.7°C 76% 2.0 mph S3.2 kmh S 5.0 mph8.0 kmh 30.25 in1024.4 mb 0.00 in0.0 mm 0.00 in0.0 mm 0.02 in0.5 mm
08:19 PM 34.0°F1.1°C 27.2°F-2.7°C 76% 1.0 mph S1.6 kmh S 5.0 mph8.0 kmh 30.25 in1024.4 mb 0.00 in0.0 mm 0.00 in0.0 mm 0.02 in0.5 mm
08:24 PM 34.0°F1.1°C 27.2°F-2.7°C 76% Calm Calm 5.0 mph8.0 kmh 30.25 in1024.4 mb 0.00 in0.0 mm 0.00 in0.0 mm 0.02 in0.5 mm
08:29 PM 34.0°F1.1°C 27.2°F-2.7°C 76% 1.0 mph S1.6 kmh S 1.0 mph1.6 kmh 30.25 in1024.4 mb 0.00 in0.0 mm 0.00 in0.0 mm 0.02 in0.5 mm
08:34 PM 33.9°F1.1°C 27.1°F-2.7°C 76% Calm Calm 2.0 mph3.2 kmh 30.25 in1024.4 mb 0.00 in0.0 mm 0.00 in0.0 mm 0.02 in0.5 mm
08:39 PM 33.7°F0.9°C 26.9°F-2.8°C 76% 1.0 mph S1.6 kmh S 3.0 mph4.8 kmh 30.25 in1024.4 mb 0.00 in0.0 mm 0.00 in0.0 mm 0.02 in0.5 mm
08:44 PM 33.6°F0.9°C 26.8°F-2.9°C 76% 1.0 mph S1.6 kmh S 3.0 mph4.8 kmh 30.25 in1024.4 mb 0.00 in0.0 mm 0.00 in0.0 mm 0.02 in0.5 mm
08:49 PM 33.4°F0.8°C 26.6°F-3.0°C 76% Calm Calm 3.0 mph4.8 kmh 30.25 in1024.4 mb 0.00 in0.0 mm 0.00 in0.0 mm 0.02 in0.5 mm
08:54 PM 33.3°F0.7°C 26.5°F-3.1°C 76% Calm Calm 3.0 mph4.8 kmh 30.25 in1024.4 mb 0.00 in0.0 mm 0.00 in0.0 mm 0.02 in0.5 mm
08:59 PM 33.2°F0.7°C 26.4°F-3.1°C 76% 1.0 mph SSE1.6 kmh SSE 4.0 mph6.4 kmh 30.25 in1024.4 mb 0.00 in0.0 mm 0.00 in0.0 mm 0.02 in0.5 mm
09:04 PM 33.0°F0.6°C 26.2°F-3.2°C 76% 1.0 mph SSE1.6 kmh SSE 4.0 mph6.4 kmh 30.25 in1024.4 mb 0.00 in0.0 mm 0.00 in0.0 mm 0.02 in0.5 mm
09:09 PM 32.9°F0.5°C 26.1°F-3.3°C 76% Calm Calm 2.0 mph3.2 kmh 30.25 in1024.4 mb 0.00 in0.0 mm 0.00 in0.0 mm 0.02 in0.5 mm
09:14 PM 32.7°F0.4°C 26.2°F-3.2°C 77% Calm Calm 3.0 mph4.8 kmh 30.25 in1024.4 mb 0.00 in0.0 mm 0.00 in0.0 mm 0.02 in0.5 mm
09:19 PM 32.6°F0.3°C 26.2°F-3.2°C 77% Calm Calm 4.0 mph6.4 kmh 30.25 in1024.4 mb 0.00 in0.0 mm 0.00 in0.0 mm 0.02 in0.5 mm
09:24 PM 32.6°F0.3°C 26.2°F-3.2°C 77% Calm Calm 4.0 mph6.4 kmh 30.25 in1024.4 mb 0.00 in0.0 mm 0.00 in0.0 mm 0.02 in0.5 mm
09:29 PM 32.5°F0.3°C 26.4°F-3.1°C 78% Calm Calm 4.0 mph6.4 kmh 30.24 in1024.0 mb 0.00 in0.0 mm 0.00 in0.0 mm 0.02 in0.5 mm
09:34 PM 32.5°F0.3°C 26.4°F-3.1°C 78% 3.0 mph S4.8 kmh S 4.0 mph6.4 kmh 30.24 in1024.0 mb 0.00 in0.0 mm 0.00 in0.0 mm 0.02 in0.5 mm
09:39 PM 32.5°F0.3°C 26.4°F-3.1°C 78% 2.0 mph S3.2 kmh S 3.0 mph4.8 kmh 30.24 in1024.0 mb 0.00 in0.0 mm 0.00 in0.0 mm 0.02 in0.5 mm
09:44 PM 32.5°F0.3°C 26.7°F-2.9°C 79% 1.0 mph SSW1.6 kmh SSW 4.0 mph6.4 kmh 30.24 in1024.0 mb 0.00 in0.0 mm 0.00 in0.0 mm 0.02 in0.5 mm
09:49 PM 32.6°F0.3°C 26.8°F-2.9°C 79% 2.0 mph S3.2 kmh S 6.0 mph9.7 kmh 30.23 in1023.7 mb 0.00 in0.0 mm 0.00 in0.0 mm 0.02 in0.5 mm
09:54 PM 32.7°F0.4°C 26.9°F-2.8°C 79% 2.0 mph S3.2 kmh S 6.0 mph9.7 kmh 30.24 in1024.0 mb 0.00 in0.0 mm 0.00 in0.0 mm 0.02 in0.5 mm
09:59 PM 32.7°F0.4°C 26.9°F-2.8°C 79% Calm Calm 6.0 mph9.7 kmh 30.23 in1023.7 mb 0.00 in0.0 mm 0.00 in0.0 mm 0.02 in0.5 mm
10:04 PM 32.8°F0.4°C 27.0°F-2.8°C 79% 2.0 mph S3.2 kmh S 6.0 mph9.7 kmh 30.23 in1023.7 mb 0.00 in0.0 mm 0.00 in0.0 mm 0.02 in0.5 mm
10:09 PM 32.9°F0.5°C 27.1°F-2.7°C 79% 1.0 mph S1.6 kmh S 4.0 mph6.4 kmh 30.23 in1023.7 mb 0.00 in0.0 mm 0.00 in0.0 mm 0.02 in0.5 mm
10:14 PM 32.9°F0.5°C 27.1°F-2.7°C 79% Calm Calm 4.0 mph6.4 kmh 30.23 in1023.7 mb 0.00 in0.0 mm 0.00 in0.0 mm 0.02 in0.5 mm
10:19 PM 32.9°F0.5°C 27.1°F-2.7°C 79% 2.0 mph S3.2 kmh S 5.0 mph8.0 kmh 30.23 in1023.7 mb 0.00 in0.0 mm 0.00 in0.0 mm 0.02 in0.5 mm
10:24 PM 32.9°F0.5°C 27.1°F-2.7°C 79% 4.0 mph S6.4 kmh S 6.0 mph9.7 kmh 30.23 in1023.7 mb 0.00 in0.0 mm 0.00 in0.0 mm 0.02 in0.5 mm
10:29 PM 33.1°F0.6°C 27.3°F-2.6°C 79% 3.0 mph S4.8 kmh S 6.0 mph9.7 kmh 30.23 in1023.7 mb 0.00 in0.0 mm 0.00 in0.0 mm 0.02 in0.5 mm
10:34 PM 33.2°F0.7°C 27.4°F-2.6°C 79% 1.0 mph S1.6 kmh S 6.0 mph9.7 kmh 30.23 in1023.7 mb 0.00 in0.0 mm 0.00 in0.0 mm 0.02 in0.5 mm
10:39 PM 33.2°F0.7°C 27.4°F-2.6°C 79% 3.0 mph S4.8 kmh S 6.0 mph9.7 kmh 30.23 in1023.7 mb 0.00 in0.0 mm 0.00 in0.0 mm 0.02 in0.5 mm
10:44 PM 33.2°F0.7°C 27.1°F-2.7°C 78% 2.0 mph S3.2 kmh S 4.0 mph6.4 kmh 30.23 in1023.7 mb 0.00 in0.0 mm 0.00 in0.0 mm 0.02 in0.5 mm
10:49 PM 33.2°F0.7°C 27.1°F-2.7°C 78% 1.0 mph S1.6 kmh S 4.0 mph6.4 kmh 30.23 in1023.7 mb 0.00 in0.0 mm 0.00 in0.0 mm 0.02 in0.5 mm
10:54 PM 33.2°F0.7°C 27.1°F-2.7°C 78% 1.0 mph S1.6 kmh S 4.0 mph6.4 kmh 30.23 in1023.7 mb 0.00 in0.0 mm 0.00 in0.0 mm 0.02 in0.5 mm
10:59 PM 33.1°F0.6°C 27.0°F-2.8°C 78% Calm Calm 4.0 mph6.4 kmh 30.23 in1023.7 mb 0.00 in0.0 mm 0.00 in0.0 mm 0.02 in0.5 mm
11:04 PM 33.1°F0.6°C 27.0°F-2.8°C 78% 1.0 mph S1.6 kmh S 3.0 mph4.8 kmh 30.23 in1023.7 mb 0.00 in0.0 mm 0.00 in0.0 mm 0.00 in0.0 mm
11:09 PM 32.9°F0.5°C 26.8°F-2.9°C 78% Calm Calm 3.0 mph4.8 kmh 30.23 in1023.7 mb 0.00 in0.0 mm 0.00 in0.0 mm 0.00 in0.0 mm
11:14 PM 32.8°F0.4°C 26.3°F-3.2°C 77% 1.0 mph S1.6 kmh S 3.0 mph4.8 kmh 30.23 in1023.7 mb 0.00 in0.0 mm 0.00 in0.0 mm 0.00 in0.0 mm
11:19 PM 32.6°F0.3°C 26.5°F-3.1°C 78% 1.0 mph S1.6 kmh S 3.0 mph4.8 kmh 30.23 in1023.7 mb 0.00 in0.0 mm 0.00 in0.0 mm 0.00 in0.0 mm
11:24 PM 32.5°F0.3°C 26.4°F-3.1°C 78% 1.0 mph SSE1.6 kmh SSE 3.0 mph4.8 kmh 30.22 in1023.4 mb 0.00 in0.0 mm 0.00 in0.0 mm 0.00 in0.0 mm
11:29 PM 32.4°F0.2°C 26.3°F-3.2°C 78% 1.0 mph SSE1.6 kmh SSE 3.0 mph4.8 kmh 30.22 in1023.4 mb 0.00 in0.0 mm 0.00 in0.0 mm 0.00 in0.0 mm
11:34 PM 32.4°F0.2°C 26.3°F-3.2°C 78% Calm Calm 4.0 mph6.4 kmh 30.22 in1023.4 mb 0.00 in0.0 mm 0.00 in0.0 mm 0.00 in0.0 mm
11:39 PM 32.3°F0.2°C 26.2°F-3.2°C 78% 2.0 mph S3.2 kmh S 4.0 mph6.4 kmh 30.22 in1023.4 mb 0.00 in0.0 mm 0.00 in0.0 mm 0.00 in0.0 mm
11:44 PM 32.4°F0.2°C 26.6°F-3.0°C 79% 1.0 mph SSE1.6 kmh SSE 4.0 mph6.4 kmh 30.22 in1023.4 mb 0.00 in0.0 mm 0.00 in0.0 mm 0.00 in0.0 mm
11:49 PM 32.4°F0.2°C 26.6°F-3.0°C 79% 2.0 mph S3.2 kmh S 4.0 mph6.4 kmh 30.22 in1023.4 mb 0.00 in0.0 mm 0.00 in0.0 mm 0.00 in0.0 mm
11:54 PM 32.4°F0.2°C 26.6°F-3.0°C 79% 2.0 mph S3.2 kmh S 4.0 mph6.4 kmh 30.22 in1023.4 mb 0.00 in0.0 mm 0.00 in0.0 mm 0.00 in0.0 mm
11:59 PM 32.5°F0.3°C 26.7°F-2.9°C 79% 2.0 mph S3.2 kmh S 4.0 mph6.4 kmh 30.22 in1023.4 mb 0.00 in0.0 mm 0.00 in0.0 mm 0.00 in0.0 mm